Tiempo atmosférico en la estación meteorológica de La Aldea De San Nicolas, Las Palmas (13 m.)



Fecha
DESCASC
Temp. máxima en grados centígrados (hora)
DESCASC
Temp. mínima en grados centígrados (hora)
DESCASC
Temp. media en grados centígrados
DESCASC
Racha de viento máxima en m/sg (hora)
DESCASC
Velocidad máxima media en intervalos de 10 minutos(hora)
DESCASC
Precipitaciones diarias en mm
DESCASC
Precipitaciones de 00:00 a 06:00 en mm
DESCASC
Precipitaciones de 06:00 a 12:00 en mm
DESCASC
Precipitaciones de 12:00 a 18:00 en mm
DESCASC
Precipitaciones de 18:00 a 24:00 en mm
DESCASC

Gráficas

Temp. máximas Temp. mínimas Temp. medias Precipitaciones Rachas de viento máximas Velocidades máximas media en intervalos de 10 minutos

Datos horarios

Fecha y hora oficial Temperatura (ºC) Velocidad del viento (km/h) Dirección del viento Racha (km/h) Dirección de racha Precipitación (mm) Presión (hPa) Tendencia (hPa) Humedad (%)
2019-11-16 23:00:00 19.3 18 Este 55 Este 0 1018.8 1 58
2019-11-16 22:00:00 19.8 21 Este 55 Este 0 1018.6 0.8 59
2019-11-16 21:00:00 19.7 21 Este 52 Sudeste 0 1018.3 0.9 55
2019-11-16 20:00:00 19.9 15 Este 55 Este 0 1017.8 0.9 56
2019-11-16 19:00:00 20 19 Este 42 Este 0 1017.8 1 54
2019-11-16 18:00:00 20.4 26 Este 53 Este 0 1017.4 0.5 53
2019-11-16 17:00:00 21.4 26 Este 60 Este 0 1016.9 0.2 52
2019-11-16 16:00:00 22.9 29 Este 64 Este 0 1016.8 -1.1 45
2019-11-16 15:00:00 23.8 31 Este 72 Este 0 1016.9 -1.6 42
2019-11-16 14:00:00 23.2 32 Sudeste 66 Sudeste 0 1016.7 -2.3 42
2019-11-16 13:00:00 22.8 31 Este 53 Este 0 1017.9 -0.5 44
2019-11-16 12:00:00 22.8 26 Este 61 Este 0 1018.5 -0.2 41
2019-11-16 11:00:00 21.1 24 Este 70 Este 0 1019 1.5 54
2019-11-16 10:00:00 19.6 28 Sudeste 58 Este 0 1018.4 1.3 61
2019-11-16 09:00:00 18 33 Este 56 Sudeste 0 1018.7 2.4 72
2019-11-16 08:00:00 17.3 29 Este 65 Este 0.6 1017.5 1 74
2019-11-16 07:00:00 18.2 23 Este 58 Este 0 1017.1 0.7 66
2019-11-16 06:00:00 18.3 29 Este 51 Este 0 1016.3 -0.3 68
2019-11-16 05:00:00 18.2 27 Este 54 Este 0 1016.5 -0.2 62
2019-11-16 04:00:00 18.2 25 Este 65 Este 0 1016.4 -0.2 59
2019-11-16 03:00:00 18.7 22 Este 55 Este 0 1016.6 -0.5 62
2019-11-16 02:00:00 18.5 18 Este 47 Este 0 1016.7 0.1 66
2019-11-16 01:00:00 18 25 Este 59 Este 0 1016.6 -0.3 67
2019-11-16 00:00:00 18.6 15 Este 58 Sudeste 0 1017.1 0.8 61
2019-11-15 23:00:00 19.1 29 Sudeste 53 Este 0 1016.6 1.2 63
2019-11-15 22:00:00 19.1 22 Este 59 Este 0 1016.9 1.9 61
2019-11-15 21:00:00 18.6 23 Sudeste 60 Sudeste 0 1016.3 1.3 73
2019-11-15 20:00:00 19.5 28 Sudeste 60 Sudeste 0 1015.4 0.5 62
2019-11-15 19:00:00 19.7 30 Sudeste 57 Este 0 1015 0 58
2019-11-15 18:00:00 20.1 23 Este 55 Este 0 1015 0 59
2019-11-15 17:00:00 21.4 34 Este 64 Este 0 1014.9 -0.7 50
2019-11-15 16:00:00 22.8 23 Este 51 Este 0 1015 -1 51
2019-11-15 15:00:00 24.5 29 Este 54 Este 0 1015 -1.8 44
2019-11-15 14:00:00 22 26 Este 59 Este 0 1015.6 -1.6 54
2019-11-15 13:00:00 22.1 16 Este 63 Este 0 1016 -0.7 56
2019-11-15 12:00:00 21.3 20 Nordeste 62 Nordeste 0 1016.8 1 62
2019-11-15 11:00:00 20.1 24 Este 47 Nordeste 0.2 1017.2 1.8 71
2019-11-15 10:00:00 18.9 24 Este 56 Este 0.6 1016.7 2 79
2019-11-15 09:00:00 19.4 29 Este 60 Este 0.4 1015.8 1 79
2019-11-15 08:00:00 19.4 21 Este 64 Este 0 1015.4 0.7 64
2019-11-15 07:00:00 20 30 Sudeste 59 Sudeste 0 1014.7 0 73
2019-11-15 06:00:00 20.2 19 Este 43 Este 0 1014.8 -0.8 64
2019-11-15 05:00:00 20.6 21 Este 43 Este 0 1014.7 -0.8 54
2019-11-15 04:00:00 20.5 21 Este 54 Este 0 1014.7 -1.1 48
2019-11-15 03:00:00 20.1 24 Este 54 Nordeste 0 1015.6 -0.5 61
2019-11-15 02:00:00 20.4 28 Este 56 Este 0 1015.5 -0.3 63
2019-11-15 01:00:00 20.6 28 Este 50 Nordeste 0 1015.8 -0.3 53
2019-11-15 00:00:00 20.5 22 Nordeste 57 Nordeste 0 1016.1 0.3 64
2019-11-14 23:00:00 20.7 27 Este 52 Nordeste 0 1015.8 0.2 58
2019-11-14 22:00:00 20.6 24 Nordeste 50 Nordeste 0 1016.1 1.2 65
2019-11-14 21:00:00 21 24 Nordeste 45 Este 0 1015.8 1.1 63
2019-11-14 20:00:00 21 19 Nordeste 50 Nordeste 0 1015.6 1.2 65
2019-11-14 19:00:00 21.7 28 Nordeste 51 Nordeste 0 1014.9 0.9 57
2019-11-14 18:00:00 22.5 31 Este 52 Este 0 1014.7 0.5 56
2019-11-14 17:00:00 23.3 30 Nordeste 54 Nordeste 0 1014.4 -0.3 49
2019-11-14 16:00:00 23.5 32 Nordeste 55 Nordeste 0 1014 -1.4 53
2019-11-14 15:00:00 23.5 31 Nordeste 57 Nordeste 0 1014.2 -1.6 48
2019-11-14 14:00:00 23 38 Nordeste 61 Nordeste 0 1014.7 -1.8 57
2019-11-14 13:00:00 23.2 39 Nordeste 61 Este 0 1015.4 -0.9 57
2019-11-14 12:00:00 24.6 25 Este 56 Nordeste 0 1015.8 -0.1 48
2019-11-14 11:00:00 23.7 26 Nordeste 54 Este 0 1016.5 1.2 45
2019-11-14 10:00:00 22.7 24 Nordeste 51 Norte 0 1016.3 1.9 51
2019-11-14 09:00:00 22.1 22 Nordeste 47 Nordeste 0 1015.9 1.5 52
2019-11-14 08:00:00 21.2 21 Nordeste 45 Nordeste 0 1015.3 0.5 56
2019-11-14 07:00:00 21 23 Nordeste 44 Nordeste 0 1014.4 0 51
2019-11-14 06:00:00 20.5 20 Nordeste 52 Norte 0 1014.4 -0.8 55
2019-11-14 05:00:00 20.5 26 Nordeste 49 Nordeste 0 1014.8 0 62
2019-11-14 04:00:00 20.5 18 Nordeste 42 Nordeste 0 1014.4 -1.2 57
2019-11-14 03:00:00 20.5 23 Nordeste 62 Nordeste 0 1015.2 -1.1 58
2019-11-14 02:00:00 20.4 32 Nordeste 68 Norte 0 1014.8 -1.5 61
2019-11-14 01:00:00 20.5 35 Este 60 Este 0 1015.6 -0.8 61
2019-11-14 00:00:00 20.8 29 Nordeste 70 Nordeste 0 1016.3 0.4 54
2019-11-13 23:00:00 20.7 36 Nordeste 77 Este 0 1016.3 0.6 56
2019-11-13 22:00:00 20.6 34 Nordeste 64 Este 0 1016.4 1.6 60
2019-11-13 21:00:00 21.2 26 Nordeste 66 Norte 0 1015.9 0.7 53
2019-11-13 20:00:00 21 41 Nordeste 82 Este 0 1015.7 0 55
2019-11-13 19:00:00 20.9 39 Este 80 Este 0 1014.8 -0.8 60
2019-11-13 18:00:00 21.4 37 Este 82 Este 0 1015.2 -0.1 59
2019-11-13 17:00:00 22.8 30 Este 80 Este 0 1015.7 0.6 56
2019-11-13 16:00:00 23.6 46 Este 78 Este 0 1015.6 -0.2 54
2019-11-13 15:00:00 24.7 36 Este 77 Este 0 1015.3 -1.5 50
2019-11-13 14:00:00 24.6 36 Este 80 Este 0 1015.1 -2.3 48
2019-11-13 13:00:00 25.1 28 Este 72 Este 0 1015.8 -1.6 46
2019-11-13 12:00:00 23.9 39 Nordeste 65 Nordeste 0 1016.8 -0.2 47
2019-11-13 11:00:00 23.5 34 Nordeste 61 Nordeste 0 1017.4 1 51
2019-11-13 10:00:00 22.7 35 Nordeste 65 Nordeste 0 1017.4 1.7 52
2019-11-13 09:00:00 21.6 29 Nordeste 62 Este 0 1017 1.9 60
2019-11-13 08:00:00 20.9 33 Nordeste 60 Nordeste 0 1016.4 1.5 61
2019-11-13 07:00:00 20.5 33 Nordeste 84 Este 0 1015.7 1.1 67
2019-11-13 06:00:00 20.6 35 Este 68 Nordeste 0 1015.1 0.7 68
2019-11-13 05:00:00 20.6 33 Nordeste 68 Nordeste 0 1014.9 -0.3 65
2019-11-13 04:00:00 20.8 45 Nordeste 63 Nordeste 0 1014.6 -1 63
2019-11-13 03:00:00 20.9 46 Nordeste 68 Nordeste 0 1014.4 -0.9 61
2019-11-13 02:00:00 21 37 Nordeste 72 Nordeste 0 1015.2 -0.8 60
2019-11-13 01:00:00 20.7 38 Nordeste 84 Nordeste 0 1015.6 -0.6 64
2019-11-13 00:00:00 20.6 44 Nordeste 76 Nordeste 0 1015.3 -0.6 66
2019-11-12 23:00:00 20.7 40 Nordeste 76 Nordeste 0 1016 0.5 64
2019-11-12 22:00:00 20.6 43 Nordeste 78 Nordeste 0 1016.2 0.9 67
2019-11-12 21:00:00 20.7 36 Nordeste 71 Este 0 1015.9 0.7 65
2019-11-12 20:00:00 21 30 Este 82 Este 0 1015.5 0.2 68
2019-11-12 19:00:00 21.5 26 Este 69 Este 0 1015.3 -0.5 64
2019-11-12 18:00:00 22.2 35 Este 75 Este 0 1015.2 -1 64
2019-11-12 17:00:00 24.1 29 Este 59 Este 0 1015.3 -1.1 59
2019-11-12 16:00:00 25.3 26 Nordeste 61 Este 0 1015.8 -1.6 56
2019-11-12 15:00:00 22.5 36 Este 69 Este 0 1016.2 -1.8 68
2019-11-12 14:00:00 24.7 33 Este 66 Este 0 1016.4 -2.1 61
2019-11-12 13:00:00 24.1 36 Este 78 Este 0 1017.4 -1.1 64
2019-11-12 12:00:00 25 27 Este 71 Este 0 1018 0.2 49
2019-11-12 11:00:00 24 28 Este 71 Este 0 1018.5 1.1 59
2019-11-12 10:00:00 22 38 Este 74 Este 0 1018.5 1.3 71
2019-11-12 09:00:00 22.1 34 Este 60 Este 0 1017.8 1 61
2019-11-12 08:00:00 22.2 19 Este 54 Este 0 1017.4 0.8 57
2019-11-12 07:00:00 21.1 27 Este 64 Este 0 1017.2 -0.2 66
2019-11-12 06:00:00 21 28 Este 75 Este 0 1016.8 -0.9 64
2019-11-12 05:00:00 20.9 37 Este 86 Este 0 1016.6 -1.7 65
2019-11-12 04:00:00 20.9 27 Este 55 Este 0 1017.4 -1.5 64
2019-11-12 03:00:00 20.7 28 Este 62 Este 0 1017.7 -1.1 66
2019-11-12 02:00:00 20.8 28 Este 67 Este 0 1018.3 -0.8 66
2019-11-12 01:00:00 20.9 29 Este 71 Este 0 1018.9 -0.9 66
2019-11-12 00:00:00 21.2 29 Este 57 Este 0 1018.8 -0.7 61
2019-11-11 23:00:00 21 27 Este 80 Este 0 1019.1 -0.2 67
2019-11-11 22:00:00 21.1 31 Este 62 Sudeste 0 1019.8 0.5 68
2019-11-11 21:00:00 21 31 Este 68 Este 0 1019.5 0.5 64
2019-11-11 20:00:00 20.9 28 Este 59 Este 0 1019.3 0.6 68
2019-11-11 19:00:00 20.6 26 Este 57 Este 0 1019.3 0.2 75
2019-11-11 18:00:00 21.5 31 Este 71 Este 0 1019 -0.2 68
2019-11-11 17:00:00 22.8 35 Este 70 Este 0 1018.7 -1.4 58
2019-11-11 16:00:00 22.8 38 Este 67 Nordeste 0 1019.1 -1.3 61
2019-11-11 15:00:00 24.7 35 Este 66 Este 0 1019.2 -1.6 53
2019-11-11 14:00:00 25.4 23 Este 55 Nordeste 0 1020.1 -1.9 45
2019-11-11 13:00:00 24.1 30 Este 89 Este 0 1020.4 -1.9 53
2019-11-11 12:00:00 24.5 30 Este 82 Este 0 1020.8 -1.7 51
2019-11-11 11:00:00 23.6 35 Nordeste 77 Nordeste 0 1022 0.9 51
2019-11-11 10:00:00 23 24 Nordeste 60 Nordeste 0 1022.3 1.7 49
2019-11-11 09:00:00 22 31 Este 75 Este 0 1022.5 1.5 57
2019-11-11 08:00:00 20.9 29 Este 74 Este 0 1021.1 0.2 58
2019-11-11 07:00:00 20.4 32 Este 73 Nordeste 0 1020.6 -0.5 60
2019-11-11 06:00:00 20.7 30 Nordeste 60 Este 0 1021 -0.9 58
2019-11-11 05:00:00 20.6 24 Este 57 Este 0 1020.9 -1.6 58
2019-11-11 04:00:00 20.5 20 Este 56 Nordeste 0 1021.1 -1.4 55
2019-11-11 03:00:00 20.4 25 Este 51 Este 0 1021.9 -0.9 57
2019-11-11 02:00:00 20.5 21 Este 59 Este 0 1022.5 -0.7 57
2019-11-11 01:00:00 20.6 24 Este 49 Este 0 1022.5 -0.5 60
2019-11-11 00:00:00 20.7 22 Este 50 Este 0 1022.8 0.2 61
2019-11-10 23:00:00 20.6 24 Este 48 Este 0 1023.2 0.9 58
2019-11-10 22:00:00 20.9 23 Este 51 Este 0 1023 1.3 61
2019-11-10 21:00:00 21 28 Este 60 Este 0 1022.6 1.3 66
2019-11-10 20:00:00 21.4 24 Nordeste 56 Este 0 1022.3 1.3 71
2019-11-10 19:00:00 22.3 26 Nordeste 51 Este 0 1021.7 1.3 59
2019-11-10 18:00:00 23 22 Nordeste 54 Este 0 1021.3 1.3 56
2019-11-10 17:00:00 23.9 25 Nordeste 56 Nordeste 0 1021 0.2 53
2019-11-10 16:00:00 25.2 30 Nordeste 64 Nordeste 0 1020.4 -1.4 43
2019-11-10 15:00:00 24.5 40 Nordeste 67 Nordeste 0 1020 -2 47
2019-11-10 14:00:00 24.6 36 Nordeste 64 Nordeste 0 1020.8 -2.2 46
2019-11-10 13:00:00 24.4 33 Nordeste 58 Nordeste 0 1021.8 -0.9 49
2019-11-10 12:00:00 24.5 30 Este 54 Este 0 1022 -0.6 44
2019-11-10 11:00:00 24.1 29 Nordeste 56 Nordeste 0 1023 0.7 43
2019-11-10 10:00:00 22.8 26 Nordeste 46 Nordeste 0 1022.7 1.4 48
2019-11-10 09:00:00 21.6 22 Este 50 Este 0 1022.6 1.8 53
2019-11-10 08:00:00 20.3 27 Nordeste 65 Este 0 1022.3 1.2 58
2019-11-10 07:00:00 19.9 27 Este 59 Este 0 1021.3 0.3 57
2019-11-10 06:00:00 20 22 Nordeste 56 Nordeste 0 1020.8 -0.6 56
2019-11-10 05:00:00 20.2 21 Este 48 Este 0 1021.1 0 52
2019-11-10 04:00:00 20.5 21 Este 69 Este 0 1021 -0.4 55
2019-11-10 03:00:00 20.8 21 Este 57 Este 0 1021.4 -0.4 51
2019-11-10 02:00:00 21 23 Este 57 Este 0 1021.1 -1.1 49
2019-11-10 01:00:00 20.7 21 Este 49 Este 0 1021.4 -0.6 49
2019-11-10 00:00:00 20.6 21 Este 54 Este 0 1021.8 0.3 56
2019-11-09 23:00:00 20.8 24 Este 51 Nordeste 0 1022.2 0.8 61
2019-11-09 22:00:00 20.7 24 Este 55 Sudeste 0 1022 1.1 62
2019-11-09 21:00:00 20.8 22 Este 63 Este 0 1021.5 0.9 57
2019-11-09 20:00:00 21.1 31 Este 57 Sudeste 0 1021.4 1.6 57
2019-11-09 19:00:00 21.5 22 Este 57 Este 0 1020.9 1.1 55
2019-11-09 18:00:00 22 26 Este 50 Este 0 1020.6 0.7 48
2019-11-09 17:00:00 24.5 27 Este 57 Este 0 1019.8 0 43
2019-11-09 16:00:00 24.9 25 Este 48 Este 0 1019.8 -0.9 42
2019-11-09 15:00:00 24.3 28 Este 78 Este 0 1019.9 -1.6 46
2019-11-09 14:00:00 25.5 22 Este 63 Este 0 1019.8 -2.1 40
2019-11-09 13:00:00 24.2 21 Este 63 Este 0 1020.7 -0.9 49
2019-11-09 12:00:00 23.1 24 Este 51 Este 0 1021.5 1.1 51
2019-11-09 11:00:00 22.4 16 Este 61 Este 0 1021.9 1.7 57
2019-11-09 10:00:00 22.5 23 Este 67 Este 0 1021.6 1.7 56
2019-11-09 09:00:00 21.6 22 Este 66 Este 0 1020.4 1 55
2019-11-09 08:00:00 20.9 26 Este 53 Este 0 1020.2 1.3 51
2019-11-09 07:00:00 20.9 19 Este 54 Este 0 1019.9 1.1 56
2019-11-09 06:00:00 20.6 27 Nordeste 50 Nordeste 0 1019.4 0.3 63
2019-11-09 05:00:00 20.9 22 Nordeste 43 Este 0 1018.9 -0.6 57
2019-11-09 04:00:00 20.5 27 Este 45 Nordeste 0 1018.8 -0.5 56
2019-11-09 03:00:00 20.4 24 Este 61 Este 0 1019.1 -0.9 53
2019-11-09 02:00:00 20.5 26 Nordeste 56 Este 0 1019.5 -0.3 54
2019-11-09 01:00:00 20.7 27 Este 57 Este 0 1019.3 -0.2 52
2019-11-09 00:00:00 20.5 29 Nordeste 54 Nordeste 0 1020 0.8 53
2019-11-08 23:00:00 20.8 28 Nordeste 59 Nordeste 0 1019.8 1 50
2019-11-08 22:00:00 20.9 36 Nordeste 58 Nordeste 0 1019.5 1.3 55
2019-11-08 21:00:00 21.1 24 Nordeste 53 Nordeste 0 1019.2 1.5 55
2019-11-08 20:00:00 21.2 36 Nordeste 64 Nordeste 0 1018.8 1.3 55
2019-11-08 19:00:00 22 19 Este 49 Nordeste 0 1018.2 0.7 50
2019-11-08 18:00:00 22.6 23 Nordeste 48 Nordeste 0 1017.7 1 52
2019-11-08 17:00:00 24.9 19 Este 42 Este 0 1017.5 -0.1 42
2019-11-08 16:00:00 25.1 26 Nordeste 67 Este 0 1017.5 -0.6 50
2019-11-08 15:00:00 24.2 34 Este 66 Este 0 1016.7 -1.2 61
2019-11-08 14:00:00 25.8 24 Este 54 Nordeste 0 1017.6 -0.1 55
2019-11-08 13:00:00 24.7 30 Nordeste 58 Nordeste 0 1018.1 0.6 57
2019-11-08 12:00:00 25.3 33 Nordeste 49 Nordeste 0 1017.9 0.7 56
2019-11-08 11:00:00 25.1 33 Nordeste 52 Nordeste 0 1017.7 0.7 52
2019-11-08 10:00:00 24.7 25 Nordeste 45 Nordeste 0 1017.5 1 48
2019-11-08 09:00:00 23.6 22 Este 43 Nordeste 0 1017.2 1.3 49
2019-11-08 08:00:00 21.7 31 Nordeste 49 Nordeste 0 1017 1.1 63
2019-11-08 07:00:00 21.1 32 Nordeste 48 Nordeste 0 1016.5 0.6 67
2019-11-08 06:00:00 20.9 29 Nordeste 54 Nordeste 0 1015.9 -0.2 68
2019-11-08 05:00:00 20.9 31 Nordeste 48 Norte 0 1015.9 -0.2 71
2019-11-08 04:00:00 21 31 Nordeste 49 Nordeste 0 1015.9 -0.3 70
2019-11-08 03:00:00 20.9 38 Nordeste 52 Nordeste 0 1016.1 -0.1 70
2019-11-08 02:00:00 20.9 35 Nordeste 53 Nordeste 0 1016.1 -0.3 69
2019-11-08 01:00:00 21.2 36 Nordeste 57 Nordeste 0 1016.2 -0.1 70
2019-11-08 00:00:00 21.3 33 Nordeste 51 Nordeste 0 1016.2 0.3 69
2019-11-07 23:00:00 21.7 24 Nordeste 42 Nordeste 0 1016.4 1.7 64
2019-11-07 22:00:00 21.6 27 Nordeste 49 Nordeste 0 1016.3 2.1 65
2019-11-07 21:00:00 21.6 26 Nordeste 47 Nordeste 0 1015.9 2.2 64
2019-11-07 20:00:00 21.9 23 Este 52 Nordeste 0 1014.7 0.9 52
2019-11-07 19:00:00 21.9 28 Nordeste 51 Nordeste 0 1014.2 0.6 65
2019-11-07 18:00:00 22.4 34 Nordeste 57 Nordeste 0 1013.7 0 62
2019-11-07 17:00:00 23.6 31 Nordeste 59 Nordeste 0 1013.8 0 61
2019-11-07 16:00:00 24.5 36 Nordeste 66 Nordeste 0 1013.6 -1.4 57
2019-11-07 15:00:00 25.4 34 Nordeste 60 Norte 0 1013.7 -2.4 53
2019-11-07 14:00:00 25 35 Nordeste 55 Nordeste 0 1013.8 -2.9 49
2019-11-07 13:00:00 25.9 29 Nordeste 53 Este 0 1015 -1.7 47
2019-11-07 12:00:00 24.6 29 Nordeste 52 Nordeste 0 1016.1 -0.2 57
2019-11-07 11:00:00 22.6 21 Este 49 Este 0 1016.7 0.8 62
2019-11-07 10:00:00 22.1 19 Nordeste 41 Este 0 1016.7 1.5 60
2019-11-07 09:00:00 21.2 16 Nordeste 34 Nordeste 0 1016.3 1.2 64
2019-11-07 08:00:00 20.8 15 Este 37 Este 0 1015.9 0.7 61
2019-11-07 07:00:00 20.1 14 Este 51 Este 0 1015.2 0 55
2019-11-07 06:00:00 20.3 21 Este 42 Este 0 1015.1 -0.3 58
2019-11-07 05:00:00 20.2 23 Este 43 Este 0 1015.2 -0.3 62
2019-11-07 04:00:00 20 27 Este 55 Este 0 1015.2 -0.6 74
2019-11-07 03:00:00 20.3 21 Este 44 Nordeste 0 1015.4 -1.5 68
2019-11-07 02:00:00 19.9 17 Nordeste 51 Este 0 1015.5 -1.5 69
2019-11-07 01:00:00 20.8 18 Este 44 Nordeste 0 1015.8 -1.5 56
2019-11-07 00:00:00 20.8 19 Nordeste 36 Nordeste 0 1016.9 -0.6 63
2019-11-06 23:00:00 20.7 19 Este 46 Nordeste 0 1017 0.1 58
2019-11-06 22:00:00 20.2 21 Este 60 Este 0 1017.3 0.5 71
2019-11-06 21:00:00 20.4 21 Nordeste 53 Este 0 1017.5 0.9 72
2019-11-06 20:00:00 21 27 Este 52 Este 0 1016.9 0.5 66
2019-11-06 19:00:00 20.6 21 Este 60 Este 0 1016.8 -0.2 69
2019-11-06 18:00:00 22 19 Nordeste 48 Este 0 1016.6 -1.2 55
2019-11-06 17:00:00 22.8 24 Este 55 Este 0 1016.4 -1.5 55
2019-11-06 16:00:00 23.4 28 Este 58 Este 0 1017 -1.5 54
2019-11-06 15:00:00 23.9 22 Este 55 Este 0 1017.8 -1.8 54
2019-11-06 14:00:00 23.3 22 Este 65 Sudeste 0 1017.9 -2.2 52
2019-11-06 13:00:00 25.6 26 Este 43 Este 0 1018.5 -1.4 46
2019-11-06 12:00:00 21.7 22 Este 53 Este 0.2 1019.6 -0.1 63
2019-11-06 11:00:00 22.7 28 Sudeste 66 Sudeste 0.2 1020.1 0.6 59
2019-11-06 10:00:00 22.4 27 Este 46 Este 0 1019.9 0.7 51
2019-11-06 09:00:00 21.4 18 Este 42 Este 0 1019.7 0.8 55
2019-11-06 08:00:00 20.3 20 Este 47 Este 0 1019.5 0.9 62
2019-11-06 07:00:00 20 19 Sudeste 39 Este 0 1019.2 0.2 62
2019-11-06 06:00:00 20 23 Este 50 Este 0 1018.9 -0.4 57
2019-11-06 05:00:00 20.2 29 Sudeste 51 Este 0 1018.6 -1.1 68
2019-11-06 04:00:00 19.9 21 Sudeste 48 Sudeste 0 1019 -1.1 70
2019-11-06 03:00:00 19.8 19 Este 43 Este 0 1019.3 -1.3 65
2019-11-06 02:00:00 20.1 20 Este 41 Sudeste 0 1019.7 -1.3 61
2019-11-06 01:00:00 20.1 19 Este 45 Este 0 1020.1 -0.9 64
2019-11-06 00:00:00 20.3 23 Este 43 Este 0 1020.6 0 68
2019-11-05 23:00:00 20.4 24 Este 52 Este 0 1021 1.5 73
2019-11-05 22:00:00 20.1 25 Este 70 Este 0 1021 1.5 79
2019-11-05 21:00:00 19.9 27 Este 72 Este 0.6 1020.6 0.8 86
2019-11-05 20:00:00 20.4 30 Sudeste 54 Este 0.6 1019.5 -0.3 88
2019-11-05 19:00:00 22 21 Sudeste 51 Este 0 1019.5 -0.2 75
2019-11-05 18:00:00 21.6 29 Este 55 Sudeste 0 1019.8 -0.5 73
2019-11-05 17:00:00 23.4 26 Sudeste 59 Este 0 1019.8 -0.9 64
2019-11-05 16:00:00 24.5 26 Sudeste 49 Este 0 1019.7 -1.8 60
2019-11-05 15:00:00 24.8 13 Sudeste 44 Sudeste 0 1020.3 -1.8 58
2019-11-05 14:00:00 26.2 18 Sudeste 46 Este 0 1020.7 -2.1 54
2019-11-05 13:00:00 27.1 19 Sudeste 56 Este 0 1021.5 -0.5 50
2019-11-05 12:00:00 26.6 26 Sudeste 50 Este 0 1022.1 0.4 53
2019-11-05 11:00:00 24.3 22 Este 56 Este 0 1022.8 1.7 53
2019-11-05 10:00:00 24.7 27 Este 55 Este 0 1022 1.4 59
2019-11-05 09:00:00 23.3 24 Este 48 Este 0 1021.7 1.1 60
2019-11-05 08:00:00 22.1 22 Este 45 Este 0 1021.1 0.3 61
2019-11-05 07:00:00 21.6 24 Sudeste 55 Este 0 1020.6 -0.2 67
2019-11-05 06:00:00 21.7 22 Sudeste 44 Este 0 1020.6 -0.3 73
2019-11-05 05:00:00 21.7 19 Sudeste 46 Sudeste 0 1020.8 -0.8 70
2019-11-05 04:00:00 21.5 26 Sudeste 52 Este 0 1020.8 -1.5 70
2019-11-05 03:00:00 21.9 27 Sudeste 64 Este 0 1020.9 -1.2 68
2019-11-05 02:00:00 22 20 Este 50 Este 0 1021.6 -0.7 65
2019-11-05 01:00:00 22 31 Este 64 Este 0 1022.3 -0.1 69
2019-11-05 00:00:00 22.1 27 Sudeste 51 Este 0 1022.1 0.6 71
2019-11-04 23:00:00 22.4 23 Sudeste 53 Este 0 1022.3 1.9 72
2019-11-04 22:00:00 22.4 26 Este 55 Este 0 1022.4 2.1 71
2019-11-04 21:00:00 22.4 24 Este 52 Este 0 1021.5 1.5 70
2019-11-04 20:00:00 22.8 26 Sudeste 52 Este 0 1020.4 0.3 65
2019-11-04 19:00:00 23.2 18 Este 46 Este 0 1020.3 0.6 57
2019-11-04 18:00:00 23.5 26 Sudeste 54 Este 0 1020 0.6 58
2019-11-04 17:00:00 25.3 19 Sudeste 56 Este 0 1020.1 0.1 53
2019-11-04 16:00:00 26.8 25 Sudeste 67 Este 0 1019.7 -1.1 46
2019-11-04 15:00:00 27.1 28 Sudeste 61 Este 0 1019.4 -2.7 46
2019-11-04 14:00:00 27 25 Sudeste 60 Este 0 1020 -1.7 51
2019-11-04 13:00:00 27.7 22 Sudeste 58 Este 0 1020.8 -1.1 45
2019-11-04 12:00:00 26.6 23 Nordeste 54 Este 0 1022.1 0.9 49
2019-11-04 11:00:00 26 28 Sudeste 51 Sudeste 0 1021.7 0.9 55
2019-11-04 10:00:00 24.9 22 Este 51 Este 0 1021.9 1.9 55
2019-11-04 09:00:00 23.7 22 Este 41 Este 0 1021.2 1.7 56
2019-11-04 08:00:00 21.4 22 Sudeste 54 Este 0 1020.8 1.5 76
2019-11-04 07:00:00 21.8 26 Sudeste 56 Este 0 1020 0.7 67
2019-11-04 06:00:00 21.2 23 Sudeste 51 Este 0 1019.5 -0.6 67
2019-11-04 05:00:00 21.3 28 Este 53 Este 0 1019.3 -0.8 63
2019-11-04 04:00:00 21.2 26 Sudeste 48 Este 0 1019.3 -0.7 69
2019-11-04 03:00:00 21.2 23 Sudeste 56 Este 0 1020.1 -0.3 63
2019-11-04 02:00:00 21.4 28 Este 60 Este 0 1020.1 -0.5 72
2019-11-04 01:00:00 22 30 Sudeste 62 Este 0 1020 -0.3 65
2019-11-04 00:00:00 22.4 30 Este 65 Este 0 1020.4 0.1 61
2019-11-03 23:00:00 22.6 27 Este 56 Este 0 1020.6 0.3 61
2019-11-03 22:00:00 22.5 27 Sudeste 56 Sudeste 0 1020.3 -0.2 64
2019-11-03 21:00:00 22.9 23 Sudeste 51 Nordeste 0 1020.3 0.2 60
2019-11-03 20:00:00 23.1 25 Este 57 Este 0 1020.3 0.6 61
2019-11-03 19:00:00 23 23 Nordeste 46 Nordeste 0 1020.5 1.2 67
2019-11-03 18:00:00 23.8 25 Nordeste 57 Nordeste 0 1020.1 0.7 64
2019-11-03 17:00:00 24.6 33 Norte 62 Nordeste 0 1019.7 0 65
2019-11-03 16:00:00 25 37 Norte 65 Nordeste 0 1019.3 -1.5 67
2019-11-03 15:00:00 27 34 Nordeste 60 Nordeste 0 1019.4 -1.4 55
2019-11-03 14:00:00 26.1 37 Norte 60 Nordeste 0 1019.7 -1.1 57
2019-11-03 13:00:00 25.7 32 Nordeste 59 Nordeste 0 1020.8 0 59
2019-11-03 12:00:00 24.7 39 Norte 62 Norte 0 1020.8 0.2 67
2019-11-03 11:00:00 24.8 39 Norte 56 Norte 0 1020.8 0.7 67
2019-11-03 10:00:00 24.4 27 Norte 43 Norte 0 1020.8 1.2 67
2019-11-03 09:00:00 23.1 10 Este 22 Nordeste 0 1020.6 1.5 70
2019-11-03 08:00:00 22.3 15 Nordeste 53 Norte 0 1020.1 1.2 74
2019-11-03 07:00:00 21.8 19 Nordeste 44 Norte 0 1019.6 0.9 81
2019-11-03 06:00:00 19.1 8 Sudeste 31 Nordeste 0 1019.1 0.2 81
2019-11-03 05:00:00 19.8 9 Este 46 Nordeste 0 1018.9 0 77
2019-11-03 04:00:00 22.4 31 Nordeste 62 Norte 0 1018.7 -0.8 77
2019-11-03 03:00:00 22.3 34 Norte 57 Norte 0 1018.9 -0.8 79
2019-11-03 02:00:00 19.7 6 Sudeste 26 Nordeste 0 1018.9 -0.8 81
2019-11-03 01:00:00 22 17 Nordeste 52 Norte 0 1019.5 0 82
2019-11-03 00:00:00 22.1 15 Este 41 Nordeste 0 1019.7 0.5 79
2019-11-02 23:00:00 22.1 12 Este 33 Nordeste 0 1019.7 1.1 79
2019-11-02 22:00:00 22.6 21 Nordeste 51 Norte 0 1019.5 1.4 78
2019-11-02 21:00:00 22.5 33 Norte 61 Norte 0 1019.2 1.7 82
2019-11-02 20:00:00 22.6 31 Norte 61 Norte 0 1018.6 1.6 82
2019-11-02 19:00:00 22.7 29 Norte 64 Norte 0 1018.1 0.9 82
2019-11-02 18:00:00 23 42 Norte 64 Norte 0 1017.5 0.2 80
2019-11-02 17:00:00 24.3 42 Norte 68 Norte 0 1017 -0.6 71
2019-11-02 16:00:00 24 49 Norte 69 Norte 0 1017.2 -0.8 76
2019-11-02 15:00:00 24.3 47 Norte 67 Nordeste 0 1017.3 -1.5 75
2019-11-02 14:00:00 24.6 48 Norte 71 Norte 0 1017.6 -2 73
2019-11-02 13:00:00 24.3 49 Norte 69 Norte 0 1018 -1.7 76
2019-11-02 12:00:00 24.2 43 Norte 70 Norte 0 1018.8 -0.8 75
2019-11-02 11:00:00 24 36 Norte 66 Norte 0 1019.6 0.5 75
2019-11-02 10:00:00 23.9 35 Norte 53 Norte 0 1019.7 0.9 74
2019-11-02 09:00:00 23.2 31 Norte 59 Norte 0 1019.6 1 75
2019-11-02 08:00:00 22.6 34 Norte 59 Nordeste 0 1019.1 0.6 77
2019-11-02 07:00:00 22.5 36 Norte 63 Norte 0 1018.8 0.1 76
2019-11-02 06:00:00 22.5 36 Norte 68 Nordeste 0 1018.6 -0.4 76
2019-11-02 05:00:00 22.6 37 Nordeste 67 Nordeste 0 1018.5 -1.5 75
2019-11-02 04:00:00 22.5 37 Norte 69 Nordeste 0 1018.7 -2 76
2019-11-02 03:00:00 22.5 33 Nordeste 65 Nordeste 0 1019 -1.7 77
2019-11-02 02:00:00 22.5 36 Nordeste 69 Nordeste 0 1020 -1.2 76
2019-11-02 01:00:00 22.3 31 Nordeste 69 Nordeste 0 1020.7 -0.2 80
2019-11-02 00:00:00 22.6 29 Nordeste 62 Nordeste 0 1020.7 0 76
2019-11-01 23:00:00 22.5 31 Nordeste 69 Nordeste 0 1021.2 0.5 78
2019-11-01 22:00:00 22.4 41 Nordeste 83 Nordeste 0 1020.9 0.4 78
2019-11-01 21:00:00 22.6 37 Norte 62 Norte 0 1020.7 0.2 77
2019-11-01 20:00:00 22.5 37 Norte 66 Norte 0 1020.7 0.4 79
2019-11-01 19:00:00 22.8 32 Norte 66 Nordeste 0 1020.5 0.4 75
2019-11-01 18:00:00 23 39 Norte 63 Norte 0 1020.5 0.2 77
2019-11-01 17:00:00 24.2 34 Norte 61 Nordeste 0 1020.3 -0.3 70
2019-11-01 16:00:00 25.4 35 Nordeste 68 Nordeste 0 1020.1 -1.2 64
2019-11-01 15:00:00 25.2 36 Norte 69 Norte 0 1020.3 -1.4 66
2019-11-01 14:00:00 25.9 39 Nordeste 69 Nordeste 0 1020.6 -1.5 61
2019-11-01 13:00:00 26 35 Nordeste 72 Norte 0 1021.3 -1.4 60
2019-11-01 12:00:00 25.4 40 Norte 71 Norte 0 1021.7 -1.2 61
2019-11-01 11:00:00 25.3 43 Norte 68 Norte 0 1022.1 -0.3 61
2019-11-01 10:00:00 24.7 36 Norte 72 Nordeste 0 1022.7 1 61
2019-11-01 09:00:00 23.2 44 Nordeste 67 Nordeste 0 1022.9 1.1 72
2019-11-01 08:00:00 23 40 Nordeste 64 Nordeste 0 1022.4 0.9 73
2019-11-01 07:00:00 22.9 35 Norte 58 Nordeste 0 1021.7 0.2 70
2019-11-01 06:00:00 23 37 Nordeste 59 Nordeste 0 1021.8 0.5 72
2019-11-01 05:00:00 23.3 41 Nordeste 63 Nordeste 0 1021.5 -0.1 69
2019-11-01 04:00:00 22.8 38 Nordeste 61 Norte 0 1021.5 -0.5 75
2019-11-01 03:00:00 23.1 40 Nordeste 60 Nordeste 0 1021.3 -0.9 70
2019-11-01 02:00:00 22.9 41 Nordeste 63 Nordeste 0 1021.6 -0.9 72
2019-11-01 01:00:00 23.8 35 Nordeste 69 Nordeste 0 1022 -0.4 59
2019-11-01 00:00:00 23.1 45 Nordeste 76 Nordeste 0 1022.2 0.3 70
2019-10-31 23:00:00 23.1 41 Nordeste 70 Nordeste 0 1022.5 1 70
2019-10-31 22:00:00 23.3 42 Nordeste 73 Nordeste 0 1022.4 1.2 71
2019-10-31 21:00:00 23.5 43 Nordeste 70 Nordeste 0 1021.9 1.2 66
2019-10-31 20:00:00 23.2 41 Norte 65 Norte 0 1021.5 1.1 71
2019-10-31 19:00:00 23.6 44 Norte 70 Norte 0 1021.2 0.7 66
2019-10-31 18:00:00 23.9 43 Norte 74 Nordeste 0 1020.7 -0.2 67
2019-10-31 17:00:00 24.7 43 Norte 74 Nordeste 0 1020.4 -0.7 65
2019-10-31 16:00:00 25 46 Norte 75 Nordeste 0 1020.5 -1.1 65
2019-10-31 15:00:00 24.9 45 Norte 77 Norte 0 1020.9 -1.4 67
2019-10-31 14:00:00 25 40 Norte 70 Norte 0 1021.1 -1.6 66
2019-10-31 13:00:00 25.5 43 Norte 71 Norte 0 1021.6 -1.2 64
2019-10-31 12:00:00 24.9 40 Norte 71 Norte 0 1022.3 -0.3 67
2019-10-31 11:00:00 24.9 37 Norte 64 Norte 0 1022.7 0.7 66
2019-10-31 10:00:00 24.5 37 Nordeste 67 Nordeste 0 1022.8 1.8 68
2019-10-31 09:00:00 23.6 41 Nordeste 76 Nordeste 0 1022.6 1.7 71
2019-10-31 08:00:00 23.2 32 Norte 66 Nordeste 0 1022 1 72
2019-10-31 07:00:00 23 32 Norte 64 Nordeste 0 1021 0.5 71
2019-10-31 06:00:00 23 32 Norte 61 Nordeste 0 1020.9 0.3 72
2019-10-31 05:00:00 24 32 Nordeste 57 Nordeste 0 1021 0.3 64
2019-10-31 04:00:00 24.3 31 Norte 62 Norte 0 1020.5 -0.7 62
2019-10-31 03:00:00 24.1 31 Norte 51 Norte 0 1020.6 -1 62
2019-10-31 02:00:00 25.1 29 Norte 58 Norte 0 1020.7 -0.8 56
2019-10-31 01:00:00 25.1 32 Norte 49 Norte 0 1021.2 -0.2 57
2019-10-31 00:00:00 25.6 28 Norte 54 Nordeste 0 1021.6 0.6 53
2019-10-30 23:00:00 25.9 25 Nordeste 47 Norte 0 1021.5 1.1 51
2019-10-30 22:00:00 26 28 Norte 46 Norte 0 1021.4 1.6 52
2019-10-30 21:00:00 26.7 28 Nordeste 52 Nordeste 0 1021 1.5 49
2019-10-30 20:00:00 26.9 28 Norte 48 Norte 0 1020.4 1.3 48
2019-10-30 19:00:00 27.4 33 Norte 45 Norte 0 1019.8 0.6 46
2019-10-30 18:00:00 26.8 27 Norte 42 Norte 0 1019.5 0.4 53
2019-10-30 17:00:00 29.2 19 Norte 39 Nordeste 0 1019.1 -0.4 44
2019-10-30 16:00:00 29.6 21 Norte 41 Norte 0 1019.2 -0.6 44
2019-10-30 15:00:00 29.4 23 Norte 48 Nordeste 0 1019.1 -1.2 48
2019-10-30 14:00:00 28.3 24 Norte 50 Norte 0 1019.5 -1.1 54
2019-10-30 13:00:00 27.4 31 Norte 53 Nordeste 0 1019.8 -0.5 55
2019-10-30 12:00:00 27.1 35 Norte 49 Norte 0 1020.3 0.4 57
2019-10-30 11:00:00 27 34 Norte 43 Norte 0 1020.6 1.2 59
2019-10-30 10:00:00 28 22 Norte 33 Norte 0 1020.3 1.6 51
2019-10-30 09:00:00 22.9 6 Sudeste 10 Sudeste 0 1019.9 1.5 71
2019-10-30 08:00:00 18.6 5 Este 9 Sudeste 0 1019.4 1.7 83
2019-10-30 07:00:00 18.2 7 Este 11 Sudeste 0 1018.7 1.2 83
2019-10-30 06:00:00 18.1 8 Sudeste 10 Sudeste 0 1018.4 0.6 83
2019-10-30 05:00:00 18.4 4 Sudeste 10 Este 0 1017.7 -0.4 82
2019-10-30 04:00:00 18.8 6 Este 8 Este 0 1017.5 -1 82
2019-10-30 03:00:00 19.1 5 Este 11 Sudeste 0 1017.8 -0.8 82
2019-10-30 02:00:00 19.6 6 Este 11 Sudeste 0 1018.1 -0.6 81
2019-10-30 01:00:00 20 4 Sudeste 8 Sudeste 0 1018.5 -0.1 79
2019-10-30 00:00:00 21 8 Sudeste 12 Sudeste 0 1018.6 0.5 78
2019-10-29 23:00:00 22.2 5 Este 14 Oeste 0 1018.7 1.3 76
2019-10-29 22:00:00 23.1 5 Norte 15 Nordeste 0 1018.6 1.9 76
2019-10-29 21:00:00 23.1 6 Sudeste 9 Sudoeste 0 1018.1 2.1 72
2019-10-29 20:00:00 24.3 6 Sudoeste 31 Nordeste 0 1017.4 1.5 72
2019-10-29 19:00:00 24.7 23 Nordeste 37 Nordeste 0 1016.7 1 71
2019-10-29 18:00:00 27 11 Norte 23 Sudoeste 0 1016 0.2 59
2019-10-29 17:00:00 26 19 Oeste 24 Oeste 0 1015.9 0.1 67
2019-10-29 16:00:00 26.6 20 Oeste 27 Oeste 0 1015.7 -0.6 63
2019-10-29 15:00:00 27.3 19 Oeste 26 Oeste 0 1015.8 -1.3 59
2019-10-29 14:00:00 26.9 19 Oeste 25 Oeste 0 1015.8 -1.5 59
2019-10-29 13:00:00 27.3 17 Oeste 25 Oeste 0 1016.3 -0.8 53
2019-10-29 12:00:00 26.6 19 Oeste 26 Oeste 0 1017.1 0.5 55
2019-10-29 11:00:00 25.8 17 Oeste 24 Oeste 0 1017.3 1.5 60
2019-10-29 10:00:00 25.2 11 Oeste 17 Oeste 0 1017.1 1.7 63
2019-10-29 09:00:00 23.2 4 Este 8 Este 0 1016.6 1.7 60
2019-10-29 08:00:00 18.8 6 Este 10 Este 0 1015.8 1 75
2019-10-29 07:00:00 18 7 Este 9 Sudeste 0 1015.4 0.6 77
2019-10-29 06:00:00 18.3 6 Este 10 Sudeste 0 1014.9 0 76
2019-10-29 05:00:00 18.9 4 Nordeste 12 Sudeste 0 1014.8 -0.5 74
2019-10-29 04:00:00 18.9 9 Sudeste 11 Sudeste 0 1014.8 -0.8 76
2019-10-29 03:00:00 19.2 6 Sudeste 11 Sudeste 0 1014.9 -0.9 74
2019-10-29 02:00:00 19.5 6 Este 8 Este 0 1015.3 -0.8 73
2019-10-29 01:00:00 19.9 4 Este 6 Este 0 1015.6 -0.8 72
2019-10-29 00:00:00 20.7 3 Este 8 Este 0 1015.8 -0.2 69
2019-10-28 23:00:00 21.3 5 Este 9 Sudeste 0 1016.1 0.7 66
2019-10-28 22:00:00 22 5 Este 7 Este 0 1016.4 1.5 66
2019-10-28 21:00:00 22.9 4 Sudeste 6 Nordeste 0 1016 1.2 63
2019-10-28 20:00:00 24.2 4 Este 7 Este 0 1015.4 0.3 60
2019-10-28 19:00:00 25.7 0 Calma 10 Oeste 0 1014.9 -0.4 55
2019-10-28 18:00:00 27 7 Sudoeste 19 Sudoeste 0 1014.8 -0.6 53
2019-10-28 17:00:00 27.3 14 Oeste 20 Oeste 0 1015.1 -1 56
2019-10-28 16:00:00 28.3 17 Oeste 24 Sudoeste 0 1015.3 -1.5 49
2019-10-28 15:00:00 29 15 Oeste 20 Oeste 0 1015.4 -2 47
2019-10-28 14:00:00 28.3 14 Oeste 20 Oeste 0 1016.1 -1.5 49
2019-10-28 13:00:00 28.7 12 Oeste 17 Oeste 0 1016.8 -0.6 50
2019-10-28 12:00:00 27.4 10 Oeste 18 Oeste 0 1017.4 0.8 56
2019-10-28 11:00:00 24.5 13 Noroeste 18 Oeste 0 1017.6 1.7 81
2019-10-28 10:00:00 23.4 13 Noroeste 18 Oeste 0 1017.4 1.9 87
2019-10-28 09:00:00 22.8 5 Oeste 11 Oeste 0 1016.6 1.5 84
2019-10-28 08:00:00 19.8 3 Sudeste 11 Sudeste 0 1015.9 0.7 78
2019-10-28 07:00:00 18.7 4 Sudeste 9 Sudeste 0 1015.5 0.5 80
2019-10-28 06:00:00 18.7 4 Nordeste 9 Este 0 1015.1 -0.2 78
2019-10-28 05:00:00 19.3 3 Sudeste 8 Sudeste 0 1015.2 -0.4 79
2019-10-28 04:00:00 19.7 3 Este 6 Este 0 1015 -1.1 80
2019-10-28 03:00:00 20.6 0 Calma 10 Este 0 1015.3 -1.1 80
2019-10-28 02:00:00 21.5 7 Este 12 Oeste 0 1015.6 -0.9 80
2019-10-28 01:00:00 22.3 4 Noroeste 9 Este 0 1016.1 -0.4 75
2019-10-28 00:00:00 23.1 5 Noroeste 12 Noroeste 0 1016.4 0.2 80
2019-10-27 23:00:00 23.3 3 Este 9 Este 0 1016.5 1 71
2019-10-27 22:00:00 24.3 6 Norte 20 Sudoeste 0 1016.5 1 73
2019-10-27 21:00:00 24.7 5 Sudoeste 26 Oeste 0 1016.2 0.7 73
2019-10-27 20:00:00 26 9 Oeste 15 Oeste 0 1015.5 -0.9 61
2019-10-27 19:00:00 26.3 11 Oeste 23 Oeste 0 1015.5 -1.6 59
2019-10-27 18:00:00 26.8 11 Noroeste 20 Oeste 0 1015.5 -1.7 62
2019-10-27 17:00:00 28.8 5 Sudeste 26 Nordeste 0 1016.4 -0.4 52
2019-10-27 16:00:00 27.3 20 Nordeste 39 Norte 0 1017.1 0.3 59
2019-10-27 15:00:00 27.4 14 Norte 29 Norte 0 1017.2 -0.1 58
2019-10-27 14:00:00 29.1 15 Oeste 39 Norte 0 1016.8 -1.1 52
2019-10-27 13:00:00 30.6 21 Norte 33 Norte 0 1016.8 -0.7 46
2019-10-27 12:00:00 30.8 11 Nordeste 25 Norte 0 1017.3 0.4 45
2019-10-27 11:00:00 27.1 8 Sudeste 15 Oeste 0 1017.9 1.1 61
2019-10-27 10:00:00 24.3 13 Oeste 19 Oeste 0 1017.5 1.3 74
2019-10-27 09:00:00 24.1 0 Calma 12 Sudeste 0 1016.9 1.1 75
2019-10-27 08:00:00 23.2 7 Sudeste 15 Noroeste 0 1016.8 1.6 79
2019-10-27 07:00:00 22.8 4 Sudeste 10 Noroeste 0 1016.2 0.5 80
2019-10-27 06:00:00 23.2 6 Noroeste 13 Noroeste 0 1015.8 -0.2 79
2019-10-27 05:00:00 23.5 3 Sur 12 Noroeste 0 1015.2 -0.8 77
2019-10-27 04:00:00 22.9 4 Sudeste 14 Sudeste 0 1015.7 -0.7 79
2019-10-27 03:00:00 23 5 Noroeste 18 Noroeste 0 1016 -0.5 85
2019-10-27 02:00:00 23 2 Sudeste 13 Este 0 1016 -1 72
2019-10-27 01:00:00 23 3 Este 10 Noroeste 0 1016.4 -0.7 79
2019-10-27 00:00:00 23.6 4 Nordeste 10 Este 0 1017 -0.2 68
2019-10-26 23:00:00 23.6 5 Este 13 Este 0 1017.1 0.7 69
2019-10-26 22:00:00 23.4 11 Este 20 Oeste 0 1017.4 1.5 75
2019-10-26 21:00:00 24 4 Sur 13 Noroeste 0 1017.2 1.3 74
2019-10-26 20:00:00 24.9 6 Este 8 Este 0 1016.4 0.3 64
2019-10-26 19:00:00 25.2 5 Oeste 14 Noroeste 0 1015.9 -0.1 66
2019-10-26 18:00:00 27.9 10 Oeste 26 Norte 0 1015.9 -1.7 52
2019-10-26 17:00:00 28.7 17 Norte 30 Norte 0 1016.1 -3.1 42
2019-10-26 16:00:00 27.7 8 Este 24 Nordeste 0 1016 -0.8 62
2019-10-26 15:00:00 23.6 6 Oeste 27 Noroeste 0.2 1017.6 0.4 74
2019-10-26 14:00:00 24.5 14 Oeste 27 Oeste 0 1019.2 1.9 69
2019-10-26 13:00:00 27.3 16 Oeste 27 Norte 0 1016.8 -1.6 50
2019-10-26 12:00:00 27.6 18 Oeste 28 Oeste 0 1017.2 1 44
2019-10-26 11:00:00 24.7 12 Este 28 Nordeste 0 1017.3 1.6 62
2019-10-26 10:00:00 23.2 17 Nordeste 48 Norte 0 1018.4 2.8 70
2019-10-26 09:00:00 21 9 Sudeste 15 Este 0 1016.2 1.8 65
2019-10-26 08:00:00 19.5 6 Sudeste 13 Sudeste 0 1015.7 0.9 69
2019-10-26 07:00:00 18.9 4 Norte 10 Sudeste 0 1015.6 0.7 68
2019-10-26 06:00:00 18.6 6 Sudeste 13 Sudeste 0 1014.4 -1.1 68
2019-10-26 05:00:00 18.5 6 Este 10 Sudeste 0 1014.8 -0.9 70
2019-10-26 04:00:00 18.9 7 Este 10 Sudeste 0 1014.9 -1.1 70
2019-10-26 03:00:00 18.9 4 Este 11 Sudeste 0 1015.5 -0.8 71
2019-10-26 02:00:00 19.3 3 Sur 12 Sudeste 0 1015.7 -0.5 72
2019-10-26 01:00:00 19.7 5 Este 11 Sudeste 0 1016 0.3 70
2019-10-26 00:00:00 19.9 6 Este 12 Sudeste 0 1016.3 1.3 70
2019-10-25 23:00:00 20.3 5 Este 12 Sudeste 0 1016.2 2 68
2019-10-25 22:00:00 20.9 4 Este 8 Sudeste 0 1015.7 1.8 71
2019-10-25 21:00:00 21.8 4 Este 11 Oeste 0 1015 1.2 74
2019-10-25 20:00:00 22.5 6 Este 14 Oeste 0 1014.2 0.5 70
2019-10-25 19:00:00 23.7 10 Noroeste 14 Noroeste 0 1013.9 -0.1 67
2019-10-25 18:00:00 24.4 10 Oeste 13 Noroeste 0 1013.8 -0.2 48
2019-10-25 17:00:00 23.9 8 Noroeste 16 Noroeste 0 1013.7 -0.6 53
2019-10-25 16:00:00 23.9 12 Oeste 24 Noroeste 0 1014 -1.4 59
2019-10-25 15:00:00 23.8 18 Oeste 26 Oeste 0 1014 -1.7 69
2019-10-25 14:00:00 24.1 13 Noroeste 18 Noroeste 0 1014.3 -1 55
2019-10-25 13:00:00 23.5 13 Oeste 19 Noroeste 0 1015.4 0.6 64
2019-10-25 12:00:00 22.7 13 Noroeste 18 Oeste 0 1015.7 1.3 70
2019-10-25 11:00:00 22.5 5 Oeste 9 Oeste 0 1015.3 0.9 66
2019-10-25 10:00:00 20.1 4 Este 12 Sudeste 0 1014.8 0.8 64
2019-10-25 09:00:00 17.7 10 Este 13 Sudeste 0 1014.4 0.5 72
2019-10-25 08:00:00 15.9 6 Este 10 Este 0 1014.4 0.6 79
2019-10-25 07:00:00 15.3 5 Este 9 Este 0 1014 -0.2 80
2019-10-25 06:00:00 15.5 4 Este 10 Sudeste 0 1013.9 -0.7 81
2019-10-25 05:00:00 15.5 7 Este 12 Este 0 1013.8 -1.6 80
2019-10-25 04:00:00 15.8 9 Este 13 Sudeste 0 1014.2 -1.6 81
2019-10-25 03:00:00 15.9 8 Este 12 Este 0 1014.6 -1.5 79
2019-10-25 02:00:00 16.4 9 Sudeste 10 Sudeste 0 1015.4 -0.6 77
2019-10-25 01:00:00 16.4 8 Este 11 Este 0 1015.8 0 77
2019-10-25 00:00:00 16.5 7 Sudeste 10 Sudeste 0 1016.1 1.1 75
2019-10-24 23:00:00 17.4 5 Nordeste 11 Sudeste 0 1016 1.3 71
2019-10-24 22:00:00 18.4 4 Este 9 Este 0 1015.8 1.5 69
2019-10-24 21:00:00 19.6 6 Este 10 Sudeste 0 1015 0.7 65
2019-10-24 20:00:00 21.2 6 Oeste 13 Oeste 0 1014.7 0.2 63
2019-10-24 19:00:00 22.1 9 Oeste 18 Sudoeste 0 1014.3 -0.9 60
2019-10-24 18:00:00 23.7 12 Oeste 18 Sudoeste 0 1014.3 -1.4 53
2019-10-24 17:00:00 24 12 Oeste 22 Noroeste 0 1014.5 -1.7 54
2019-10-24 16:00:00 23.3 13 Oeste 21 Oeste 0 1015.2 -1.6 56
2019-10-24 15:00:00 23.8 13 Oeste 20 Oeste 0 1015.7 -1.3 54
2019-10-24 14:00:00 23.5 11 Noroeste 22 Noroeste 0 1016.2 -0.9 54
2019-10-24 13:00:00 23 12 Oeste 21 Oeste 0 1016.8 0 55
2019-10-24 12:00:00 22.6 11 Noroeste 17 Oeste 0 1017 0.8 57
2019-10-24 11:00:00 21.7 6 Noroeste 12 Noroeste 0 1017.1 1.3 59
2019-10-24 10:00:00 19.4 7 Este 11 Este 0 1016.8 1.3 59
2019-10-24 09:00:00 15 7 Este 12 Este 0 1016.2 0.5 78
2019-10-24 08:00:00 13.6 7 Este 10 Este 0 1015.8 0.5 78
2019-10-24 07:00:00 14.1 7 Este 12 Este 0 1015.5 0 79
2019-10-24 06:00:00 14 6 Este 12 Este 0 1015.7 -0.2 79
2019-10-24 05:00:00 14.3 9 Este 11 Este 0 1015.3 -0.9 78
2019-10-24 04:00:00 15.1 8 Este 12 Sudeste 0 1015.5 -1.1 78
2019-10-24 03:00:00 15.2 7 Este 12 Este 0 1015.9 -0.9 78
2019-10-24 02:00:00 15.6 5 Este 10 Este 0 1016.2 -0.3 75
2019-10-24 01:00:00 16.5 9 Sudeste 10 Sudeste 0 1016.6 0.9 73
2019-10-24 00:00:00 17.6 8 Sudeste 17 Nordeste 0 1016.8 1.4 69
2019-10-23 23:00:00 20.6 13 Nordeste 35 Norte 0 1016.5 1.6 59
2019-10-23 22:00:00 20.9 22 Nordeste 42 Nordeste 0 1015.7 1.3 62
2019-10-23 21:00:00 21.2 23 Nordeste 42 Nordeste 0 1015.4 0.8 60
2019-10-23 20:00:00 21.6 25 Norte 41 Norte 0 1014.9 0.1 57
2019-10-23 19:00:00 22.2 27 Norte 44 Norte 0 1014.4 -0.5 56
2019-10-23 18:00:00 23.2 20 Norte 42 Nordeste 0 1014.6 -0.3 53
2019-10-23 17:00:00 24.3 15 Norte 45 Este 0 1014.8 -1.1 50
2019-10-23 16:00:00 24.5 13 Norte 40 Este 0 1014.9 -1.9 49
2019-10-23 15:00:00 25.7 15 Sudeste 49 Este 0 1014.9 -2.5 47
2019-10-23 14:00:00 24.7 17 Nordeste 45 Nordeste 0 1015.9 -1.3 48
2019-10-23 13:00:00 22.6 14 Nordeste 40 Nordeste 0 1016.8 -0.1 55
2019-10-23 12:00:00 21.6 18 Nordeste 30 Nordeste 0 1017.4 1.3 60
2019-10-23 11:00:00 21 16 Nordeste 38 Nordeste 0 1017.2 1 66
2019-10-23 10:00:00 20.5 18 Nordeste 28 Nordeste 0.6 1016.9 1.1 68
2019-10-23 09:00:00 19.6 12 Nordeste 33 Nordeste 0 1016.1 -0.2 71
2019-10-23 08:00:00 19 23 Nordeste 40 Nordeste 0.2 1016.2 0.4 77
2019-10-23 07:00:00 17.9 10 Sudeste 34 Nordeste 0 1015.8 -0.3 81
2019-10-23 06:00:00 18.9 18 Nordeste 40 Norte 0.2 1016.3 0 78
2019-10-23 05:00:00 20.5 15 Este 28 Este 0 1015.8 -0.8 71
2019-10-23 04:00:00 20.6 11 Este 28 Este 0 1016.1 -0.9 63
2019-10-23 03:00:00 20.9 16 Este 43 Este 0 1016.3 -1 57
2019-10-23 02:00:00 20.6 10 Este 33 Este 0 1016.6 -1 59
2019-10-23 01:00:00 20.9 18 Este 41 Este 0 1017 -0.4 54
2019-10-23 00:00:00 21.1 19 Este 41 Este 0 1017.3 0.4 60
2019-10-22 23:00:00 21.1 14 Este 31 Este 0 1017.6 1.3 59
2019-10-22 22:00:00 21.1 13 Este 33 Este 0 1017.4 1.4 56
2019-10-22 21:00:00 20.9 15 Este 46 Este 0 1016.9 1.2 54
2019-10-22 20:00:00 21.5 18 Este 44 Este 0 1016.3 0.4 54
2019-10-22 19:00:00 22.1 18 Sudeste 44 Este 0 1016 0 55
2019-10-22 18:00:00 23.2 18 Sudeste 40 Este 0 1015.7 -0.9 54
2019-10-22 17:00:00 24.3 15 Sudeste 30 Este 0 1015.9 -1.4 49
2019-10-22 16:00:00 26.1 16 Sudeste 40 Este 0 1016 -2.1 41
2019-10-22 15:00:00 25.9 17 Sudeste 42 Sudeste 0 1016.6 -2.2 41
2019-10-22 14:00:00 24.3 17 Sudeste 39 Este 0 1017.3 -1.2 47
2019-10-22 13:00:00 23.9 14 Este 37 Este 0 1018.1 0.1 42
2019-10-22 12:00:00 21.6 17 Este 53 Este 0 1018.8 1.4 60
2019-10-22 11:00:00 23.8 13 Este 36 Este 0 1018.5 1.3 42
2019-10-22 10:00:00 21.9 14 Este 39 Este 0 1018 1 51
2019-10-22 09:00:00 21.4 17 Este 41 Este 0 1017.4 0.6 47
2019-10-22 08:00:00 20.5 15 Este 31 Este 0 1017.2 0.8 54
2019-10-22 07:00:00 19.7 10 Este 40 Sudeste 0 1017 0.2 62
2019-10-22 06:00:00 20 20 Sudeste 39 Este 0 1016.8 -0.4 61
2019-10-22 05:00:00 20 18 Sudeste 37 Este 0 1016.4 -1 59
2019-10-22 04:00:00 20.1 17 Este 42 Este 0 1016.8 -0.8 58
2019-10-22 03:00:00 20.5 15 Este 35 Este 0 1017.2 -0.7 60
2019-10-22 02:00:00 20.4 17 Este 41 Este 0 1017.4 -0.8 59
2019-10-22 01:00:00 20.7 17 Sudeste 37 Este 0 1017.6 -0.4 58
2019-10-22 00:00:00 20.7 23 Sudeste 44 Este 0 1017.9 0.7 58
2019-10-21 23:00:00 20.6 18 Sudeste 41 Este 0 1018.2 1.5 58
2019-10-21 22:00:00 20.9 19 Este 47 Sudeste 0 1018 1.7 55
2019-10-21 21:00:00 21.1 23 Sudeste 44 Este 0 1017.2 0.9 56
2019-10-21 20:00:00 21.5 27 Sudeste 49 Este 0 1016.7 0.2 53
2019-10-21 19:00:00 22.9 25 Este 55 Este 0 1016.3 0.1 49
2019-10-21 18:00:00 24.2 25 Este 53 Este 0 1016.3 -0.3 48
2019-10-21 17:00:00 24.4 24 Sudeste 54 Este 0 1016.5 -1 50
2019-10-21 16:00:00 25.9 22 Sudeste 53 Este 0 1016.2 -1.7 43
2019-10-21 15:00:00 26.4 23 Sudeste 52 Este 0 1016.6 -1.4 40
2019-10-21 14:00:00 25.8 20 Este 58 Este 0 1017.5 0.1 42
2019-10-21 13:00:00 24 25 Este 64 Este 0 1017.9 0.9 56
2019-10-21 12:00:00 23.9 20 Nordeste 39 Este 0 1018 1.9 49
2019-10-21 11:00:00 23.7 18 Este 36 Este 0 1017.4 1.8 52
2019-10-21 10:00:00 22.6 16 Este 34 Este 0 1017 1.8 52
2019-10-21 09:00:00 21 13 Este 35 Este 0 1016.1 1.4 51
2019-10-21 08:00:00 20.8 19 Nordeste 49 Este 0 1015.6 1.4 56
2019-10-21 07:00:00 21.2 21 Este 44 Nordeste 0 1015.2 0.9 54
2019-10-21 06:00:00 21.1 23 Este 53 Este 0 1014.7 0.2 56
2019-10-21 05:00:00 21.3 19 Este 54 Este 0 1014.2 -0.7 50
2019-10-21 04:00:00 21.3 17 Este 62 Este 0 1014.3 -1.2 55
2019-10-21 03:00:00 21.3 26 Este 61 Este 0 1014.5 -1.2 62
2019-10-21 02:00:00 21.5 26 Sudeste 54 Este 0 1014.9 -0.8 63
2019-10-21 01:00:00 21.6 21 Nordeste 46 Nordeste 0 1015.5 0.4 63
2019-10-21 00:00:00 21.8 26 Este 46 Este 0 1015.7 1 63
2019-10-20 23:00:00 22.1 18 Este 52 Este 0 1015.7 1.6 63
2019-10-20 22:00:00 22.2 28 Este 65 Nordeste 0 1015.1 1.1 65
2019-10-20 21:00:00 22.7 26 Nordeste 53 Nordeste 0 1014.7 0.9 62
2019-10-20 20:00:00 22.8 35 Nordeste 56 Nordeste 0 1014.1 0.8 64
2019-10-20 19:00:00 22.6 36 Nordeste 66 Nordeste 0 1014 0.9 69
2019-10-20 18:00:00 23.5 37 Nordeste 62 Nordeste 0 1013.8 0.2 69
2019-10-20 17:00:00 24.9 30 Norte 65 Norte 0 1013.3 -0.9 64
2019-10-20 16:00:00 25 35 Norte 60 Nordeste 0 1013.1 -1.7 66
2019-10-20 15:00:00 25 26 Norte 64 Nordeste 0 1013.6 -1.6 67
2019-10-20 14:00:00 25.3 28 Norte 53 Nordeste 0 1014.2 -0.8 68
2019-10-20 13:00:00 25.6 26 Norte 51 Nordeste 0 1014.8 0.1 62
2019-10-20 12:00:00 26.6 14 Este 41 Este 0 1015.2 0.6 60
2019-10-20 11:00:00 25.8 20 Sudeste 37 Este 0 1015 0.8 59
2019-10-20 10:00:00 24.2 16 Este 33 Nordeste 0 1014.7 0.8 62
2019-10-20 09:00:00 22.5 15 Nordeste 28 Este 0 1014.6 1.1 72
2019-10-20 08:00:00 22 19 Nordeste 36 Este 0 1014.2 1.2 73
2019-10-20 07:00:00 21.8 21 Nordeste 46 Este 0 1013.9 0.6 77
2019-10-20 06:00:00 22.1 24 Este 53 Este 0 1013.5 -0.5 73
2019-10-20 05:00:00 22 22 Este 46 Este 0 1013 -1.5 68
2019-10-20 04:00:00 22 24 Este 55 Este 0 1013.3 -1.7 66
2019-10-20 03:00:00 22.1 19 Este 49 Este 0 1014 -1.3 66
2019-10-20 02:00:00 22.1 26 Nordeste 53 Este 0 1014.5 -0.6 72
2019-10-20 01:00:00 22.2 27 Este 58 Este 0 1015 -0.1 75
2019-10-20 00:00:00 22.3 21 Este 55 Nordeste 0 1015.3 0.9 74
2019-10-19 23:00:00 22.4 28 Este 52 Este 0 1015.1 1.2 71
2019-10-19 22:00:00 22.3 23 Nordeste 52 Nordeste 0 1015.1 1.4 76
2019-10-19 21:00:00 22.7 22 Nordeste 59 Nordeste 0 1014.4 0.9 69
2019-10-19 20:00:00 23 13 Nordeste 51 Este 0 1013.9 0 68
2019-10-19 19:00:00 23.5 25 Norte 50 Nordeste 0 1013.7 -0.5 70
2019-10-19 18:00:00 24.5 27 Norte 55 Este 0 1013.5 -0.9 66
2019-10-19 17:00:00 26.3 19 Nordeste 58 Este 0 1013.9 -1.4 56
2019-10-19 16:00:00 25.8 21 Norte 57 Este 0 1014.2 -1.9 57
2019-10-19 15:00:00 26.5 13 Sudeste 56 Este 0 1014.4 -1.9 54
2019-10-19 14:00:00 27 13 Nordeste 55 Este 0 1015.3 -1 52
2019-10-19 13:00:00 26.4 22 Nordeste 50 Este 0 1016.1 0.2 59
2019-10-19 12:00:00 25.2 15 Nordeste 47 Este 0 1016.3 0.8 61
2019-10-19 11:00:00 25.8 19 Este 50 Este 0 1016.3 1 58
2019-10-19 10:00:00 23.6 13 Sudeste 30 Este 0 1015.9 1.1 65
2019-10-19 09:00:00 19.7 14 Sudeste 22 Sudeste 0 1015.5 0.9 69
2019-10-19 08:00:00 19.5 14 Este 36 Este 0 1015.3 0.5 69
2019-10-19 07:00:00 19.8 13 Sudeste 42 Sudeste 0 1014.8 -0.2 69
2019-10-19 06:00:00 19.2 16 Sudeste 42 Este 0 1014.6 -1.1 73
2019-10-19 05:00:00 20.7 19 Este 42 Este 0 1014.8 -1.4 72
2019-10-19 04:00:00 20.4 19 Este 43 Este 0 1015 -1.6 77
2019-10-19 03:00:00 18.7 12 Sudeste 28 Sudeste 0 1015.7 -1.3 75
2019-10-19 02:00:00 19 8 Sudeste 30 Nordeste 0 1016.2 -1 72
2019-10-19 01:00:00 21.6 18 Nordeste 40 Nordeste 0 1016.6 -0.1 71
2019-10-19 00:00:00 22 21 Nordeste 53 Este 0 1017 0.3 69
2019-10-18 23:00:00 22 19 Nordeste 50 Nordeste 0 1017.2 0.8 66
2019-10-18 22:00:00 21.9 31 Nordeste 50 Nordeste 0 1016.7 0.6 70
2019-10-18 21:00:00 22.1 30 Nordeste 51 Nordeste 0 1016.7 0.6 68
2019-10-18 20:00:00 22.4 23 Nordeste 48 Nordeste 0 1016.4 0.1 68
2019-10-18 19:00:00 23.7 21 Nordeste 44 Nordeste 0 1016.1 -0.2 63
2019-10-18 18:00:00 24.4 23 Nordeste 52 Nordeste 0 1016.1 -0.9 57
2019-10-18 17:00:00 24.7 20 Nordeste 51 Nordeste 0 1016.3 -1.8 60
2019-10-18 16:00:00 25.9 15 Norte 51 Este 0 1016.3 -2.2 55
2019-10-18 15:00:00 25.5 13 Sudoeste 57 Nordeste 0 1017 -2.2 56
2019-10-18 14:00:00 26.5 13 Este 48 Este 0 1018.1 -0.9 55
2019-10-18 13:00:00 24.6 16 Nordeste 47 Nordeste 0 1018.5 -0.1 62
2019-10-18 12:00:00 25.1 14 Este 50 Este 0 1019.2 1 55
2019-10-18 11:00:00 24.1 23 Este 47 Este 0 1019 0.9 60
2019-10-18 10:00:00 23.3 27 Este 50 Este 0 1018.6 1 64
2019-10-18 09:00:00 22.2 20 Este 46 Este 0 1018.2 0.6 70
2019-10-18 08:00:00 21.1 17 Este 40 Sudeste 0 1018.1 0.5 63
2019-10-18 07:00:00 20.2 21 Sudeste 37 Este 0 1017.6 -0.3 68
2019-10-18 06:00:00 20.2 19 Sudeste 49 Este 0 1017.6 -1.1 63
2019-10-18 05:00:00 20.6 22 Sudeste 50 Este 0 1017.6 -1.6 64
2019-10-18 04:00:00 21 20 Este 46 Este 0 1017.9 -1.5 67
2019-10-18 03:00:00 21.1 19 Este 39 Este 0 1018.7 -1.1 64
2019-10-18 02:00:00 21.2 19 Este 45 Nordeste 0 1019.2 -0.3 63
2019-10-18 01:00:00 21.4 18 Nordeste 45 Nordeste 0 1019.4 0.1 60
2019-10-18 00:00:00 21.5 23 Nordeste 42 Nordeste 0 1019.8 1.2 68